createdAt,value
2018-02-09T00:01:41.895Z,21.79
2018-02-09T00:02:41.811Z,21.74
2018-02-09T00:04:34.587Z,21.64
2018-02-09T00:05:34.534Z,21.69
2018-02-09T00:07:27.340Z,21.56
2018-02-09T00:08:27.256Z,21.56
2018-02-09T00:10:20.034Z,21.50
2018-02-09T00:11:19.985Z,21.39
2018-02-09T00:13:12.791Z,21.44
2018-02-09T00:14:12.705Z,21.30
2018-02-09T00:16:05.480Z,21.30
2018-02-09T00:17:05.425Z,21.23
2018-02-09T00:18:58.235Z,21.20
2018-02-09T00:19:58.151Z,21.13
2018-02-09T00:21:50.931Z,21.11
2018-02-09T00:22:50.877Z,21.02
2018-02-09T00:24:43.683Z,21.09
2018-02-09T00:25:43.599Z,20.96
2018-02-09T00:27:36.379Z,20.86
2018-02-09T00:28:36.323Z,20.86
2018-02-09T00:30:29.131Z,20.87
2018-02-09T00:31:29.046Z,20.84
2018-02-09T00:33:21.822Z,20.81
2018-02-09T00:34:21.768Z,20.83
2018-02-09T00:36:14.580Z,20.80
2018-02-09T00:37:14.493Z,20.79
2018-02-09T00:39:07.305Z,20.72
2018-02-09T00:40:07.217Z,20.66
2018-02-09T00:42:00.027Z,20.64
2018-02-09T00:42:59.936Z,20.64
2018-02-09T00:44:52.721Z,20.62
2018-02-09T00:45:52.665Z,20.54
2018-02-09T00:47:45.472Z,20.50
2018-02-09T00:48:45.388Z,20.50
2018-02-09T00:50:38.167Z,20.49
2018-02-09T00:51:38.113Z,20.41
2018-02-09T00:53:30.921Z,20.35
2018-02-09T00:54:30.836Z,20.28
2018-02-09T00:56:23.611Z,20.31
2018-02-09T00:57:23.557Z,20.25
2018-02-09T00:59:16.366Z,20.20
2018-02-09T01:00:16.281Z,20.24
2018-02-09T01:02:09.059Z,20.28
2018-02-09T01:03:09.003Z,20.16
2018-02-09T01:05:01.808Z,20.16
2018-02-09T01:06:01.723Z,20.13
2018-02-09T01:07:54.504Z,20.12
2018-02-09T01:08:54.449Z,20.02
2018-02-09T01:10:47.254Z,19.95
2018-02-09T01:11:47.170Z,20.03
2018-02-09T01:13:39.944Z,19.94
2018-02-09T01:14:39.890Z,19.94
2018-02-09T01:16:32.694Z,19.93
2018-02-09T01:17:32.613Z,19.88
2018-02-09T01:19:25.388Z,19.93
2018-02-09T01:20:25.331Z,19.80
2018-02-09T01:22:18.136Z,19.78
2018-02-09T01:23:18.050Z,19.75
2018-02-09T01:25:10.824Z,19.78
2018-02-09T01:26:10.770Z,19.70
2018-02-09T01:28:03.574Z,19.70
2018-02-09T01:29:03.487Z,19.68
2018-02-09T01:30:56.264Z,19.68
2018-02-09T01:31:56.210Z,19.63
2018-02-09T01:33:49.015Z,19.61
2018-02-09T01:34:48.928Z,19.54
2018-02-09T01:36:41.703Z,19.53
2018-02-09T01:37:41.647Z,19.48
2018-02-09T01:39:34.456Z,19.51
2018-02-09T01:40:34.371Z,19.46
2018-02-09T01:42:27.145Z,19.43
2018-02-09T01:43:27.089Z,19.43
2018-02-09T01:45:19.893Z,19.40
2018-02-09T01:46:19.808Z,19.35
2018-02-09T01:48:12.581Z,19.39
2018-02-09T01:49:12.527Z,19.36
2018-02-09T01:51:05.332Z,19.38
2018-02-09T01:52:05.248Z,19.38
2018-02-09T01:53:58.021Z,19.24
2018-02-09T01:54:57.965Z,19.31
2018-02-09T01:56:50.768Z,19.24
2018-02-09T01:57:50.683Z,19.25
2018-02-09T01:59:43.456Z,19.21
2018-02-09T02:00:43.402Z,19.15
2018-02-09T02:02:36.208Z,19.14
2018-02-09T02:03:36.121Z,19.13
2018-02-09T02:05:28.894Z,19.15
2018-02-09T02:06:28.838Z,18.95
2018-02-09T02:08:21.647Z,19.05
2018-02-09T02:09:21.557Z,18.98
2018-02-09T02:11:14.332Z,19.02
2018-02-09T02:12:14.277Z,19.05
2018-02-09T02:14:07.080Z,18.92
2018-02-09T02:15:06.993Z,18.97
2018-02-09T02:16:59.765Z,18.98
2018-02-09T02:17:59.709Z,18.94
2018-02-09T02:19:52.512Z,18.92
2018-02-09T02:20:52.426Z,18.82
2018-02-09T02:22:45.198Z,18.73
2018-02-09T02:23:45.143Z,18.73
2018-02-09T02:25:37.947Z,18.70
2018-02-09T02:26:37.861Z,18.77
2018-02-09T02:28:30.635Z,18.76
2018-02-09T02:29:30.579Z,18.55
2018-02-09T02:31:23.387Z,18.67
2018-02-09T02:32:23.300Z,18.61
2018-02-09T02:34:16.075Z,18.68
2018-02-09T02:35:16.019Z,18.59
2018-02-09T02:37:08.823Z,18.57
2018-02-09T02:38:08.739Z,18.54
2018-02-09T02:40:01.509Z,18.50
2018-02-09T02:41:01.455Z,18.54
2018-02-09T02:42:54.258Z,18.42
2018-02-09T02:43:54.172Z,18.46
2018-02-09T02:45:46.948Z,18.52
2018-02-09T02:46:46.889Z,18.46
2018-02-09T02:48:39.692Z,18.43
2018-02-09T02:49:39.606Z,18.43
2018-02-09T02:51:32.380Z,18.43
2018-02-09T02:52:32.325Z,18.43
2018-02-09T02:54:25.127Z,18.47
2018-02-09T02:55:25.042Z,18.42
2018-02-09T02:57:17.813Z,18.43
2018-02-09T02:58:17.771Z,18.42
2018-02-09T03:00:10.561Z,18.39
2018-02-09T03:01:10.476Z,18.33
2018-02-09T03:03:03.251Z,18.33
2018-02-09T03:04:03.191Z,18.37
2018-02-09T03:05:55.997Z,18.34
2018-02-09T03:06:55.910Z,18.31
2018-02-09T03:08:48.683Z,18.25
2018-02-09T03:09:48.627Z,18.25
2018-02-09T03:11:41.429Z,18.25
2018-02-09T03:12:41.342Z,18.29
2018-02-09T03:14:34.114Z,18.24
2018-02-09T03:15:34.057Z,18.21
2018-02-09T03:17:26.865Z,18.28
2018-02-09T03:18:26.779Z,18.22
2018-02-09T03:20:19.551Z,18.29
2018-02-09T03:21:19.494Z,18.31
2018-02-09T03:23:12.303Z,18.25
2018-02-09T03:24:12.217Z,18.21
2018-02-09T03:26:04.990Z,18.22
2018-02-09T03:27:04.933Z,18.22
2018-02-09T03:28:57.735Z,18.18
2018-02-09T03:29:57.648Z,18.17
2018-02-09T03:31:50.422Z,18.15
2018-02-09T03:32:50.369Z,18.07
2018-02-09T03:34:43.167Z,18.15
2018-02-09T03:35:43.079Z,18.15
2018-02-09T03:37:35.852Z,18.10
2018-02-09T03:38:35.794Z,18.07
2018-02-09T03:40:28.600Z,18.10
2018-02-09T03:41:28.512Z,18.03
2018-02-09T03:43:21.282Z,18.15
2018-02-09T03:44:21.228Z,17.99
2018-02-09T03:46:14.028Z,17.94
2018-02-09T03:47:13.945Z,18.00
2018-02-09T03:49:06.711Z,18.03
2018-02-09T03:50:06.655Z,17.99
2018-02-09T03:51:59.460Z,18.03
2018-02-09T03:52:59.371Z,18.00
2018-02-09T03:54:52.146Z,17.95
2018-02-09T03:55:52.091Z,17.92
2018-02-09T03:57:44.889Z,17.85
2018-02-09T03:58:44.802Z,17.88
2018-02-09T04:00:37.571Z,17.84
2018-02-09T04:01:37.516Z,17.97
2018-02-09T04:03:30.315Z,17.94
2018-02-09T04:04:30.231Z,17.88
2018-02-09T04:06:23.001Z,17.85
2018-02-09T04:07:22.944Z,17.92
2018-02-09T04:09:15.750Z,17.88
2018-02-09T04:10:15.660Z,17.82
2018-02-09T04:12:08.434Z,17.84
2018-02-09T04:13:08.376Z,17.82
2018-02-09T04:15:01.184Z,17.76
2018-02-09T04:16:01.096Z,17.81
2018-02-09T04:17:53.869Z,17.81
2018-02-09T04:18:53.812Z,17.88
2018-02-09T04:20:46.615Z,17.79
2018-02-09T04:21:46.530Z,17.84
2018-02-09T04:23:39.300Z,17.88
2018-02-09T04:24:39.243Z,17.81
2018-02-09T04:26:32.043Z,17.81
2018-02-09T04:27:31.956Z,17.82
2018-02-09T04:29:24.729Z,17.84
2018-02-09T04:30:24.669Z,17.74
2018-02-09T04:32:17.473Z,17.73
2018-02-09T04:33:17.385Z,17.78
2018-02-09T04:35:10.156Z,17.73
2018-02-09T04:36:10.099Z,17.78
2018-02-09T04:38:02.900Z,17.71
2018-02-09T04:39:02.813Z,17.67
2018-02-09T04:40:55.588Z,17.71
2018-02-09T04:41:55.533Z,17.71
2018-02-09T04:43:48.336Z,17.66
2018-02-09T04:44:48.250Z,17.70
2018-02-09T04:46:41.023Z,17.67
2018-02-09T04:47:40.967Z,17.73
2018-02-09T04:49:33.770Z,17.63
2018-02-09T04:50:33.681Z,17.67
2018-02-09T04:52:26.454Z,17.73
2018-02-09T04:53:26.396Z,17.50
2018-02-09T04:55:19.202Z,17.62
2018-02-09T04:56:19.113Z,17.59
2018-02-09T04:58:11.884Z,17.57
2018-02-09T04:59:11.829Z,17.55
2018-02-09T05:01:04.633Z,17.55
2018-02-09T05:02:04.543Z,17.50
2018-02-09T05:03:57.312Z,17.57
2018-02-09T05:04:57.255Z,17.62
2018-02-09T05:06:50.058Z,17.54
2018-02-09T05:07:49.970Z,17.46
2018-02-09T05:09:42.742Z,17.55
2018-02-09T05:10:42.685Z,17.51
2018-02-09T05:12:35.485Z,17.53
2018-02-09T05:13:35.398Z,17.48
2018-02-09T05:15:28.170Z,17.43
2018-02-09T05:16:28.113Z,17.46
2018-02-09T05:18:20.916Z,17.47
2018-02-09T05:19:20.831Z,17.36
2018-02-09T05:21:13.604Z,17.46
2018-02-09T05:22:13.545Z,17.38
2018-02-09T05:24:06.346Z,17.44
2018-02-09T05:25:06.260Z,17.40
2018-02-09T05:26:59.033Z,17.44
2018-02-09T05:27:58.974Z,17.48
2018-02-09T05:29:51.777Z,17.35
2018-02-09T05:30:51.690Z,17.38
2018-02-09T05:32:44.462Z,17.36
2018-02-09T05:33:44.404Z,17.33
2018-02-09T05:35:37.205Z,17.29
2018-02-09T05:36:37.117Z,17.33
2018-02-09T05:38:29.891Z,17.41
2018-02-09T05:39:29.831Z,17.33
2018-02-09T05:41:22.634Z,17.33
2018-02-09T05:42:22.549Z,17.30
2018-02-09T05:44:15.321Z,17.41
2018-02-09T05:45:15.261Z,17.28
2018-02-09T05:47:08.062Z,17.29
2018-02-09T05:48:07.975Z,17.28
2018-02-09T05:50:00.749Z,17.36
2018-02-09T05:51:00.689Z,17.30
2018-02-09T05:52:53.493Z,17.25
2018-02-09T05:53:53.406Z,17.29
2018-02-09T05:55:46.177Z,17.29
2018-02-09T05:56:46.140Z,17.22
2018-02-09T05:58:38.926Z,17.30
2018-02-09T05:59:38.840Z,17.26
2018-02-09T06:01:31.614Z,17.23
2018-02-09T06:02:31.557Z,17.25
2018-02-09T06:04:24.358Z,17.17
2018-02-09T06:05:24.273Z,17.22
2018-02-09T06:07:17.043Z,17.20
2018-02-09T06:08:16.986Z,17.20
2018-02-09T06:10:09.787Z,17.22
2018-02-09T06:11:09.699Z,17.15
2018-02-09T06:13:02.472Z,17.17
2018-02-09T06:14:02.415Z,17.20
2018-02-09T06:15:55.220Z,17.23
2018-02-09T06:16:55.134Z,17.15
2018-02-09T06:18:47.902Z,17.15
2018-02-09T06:19:47.843Z,17.13
2018-02-09T06:21:40.645Z,17.11
2018-02-09T06:22:40.559Z,17.13
2018-02-09T06:24:33.332Z,17.18
2018-02-09T06:25:33.274Z,17.08
2018-02-09T06:27:26.076Z,17.06
2018-02-09T06:28:25.988Z,17.13
2018-02-09T06:30:18.761Z,17.13
2018-02-09T06:31:18.702Z,17.13
2018-02-09T06:33:11.504Z,17.11
2018-02-09T06:34:11.415Z,17.04
2018-02-09T06:36:04.187Z,17.04
2018-02-09T06:37:04.130Z,17.10
2018-02-09T06:38:56.930Z,17.04
2018-02-09T06:39:56.842Z,17.07
2018-02-09T06:41:49.614Z,17.03
2018-02-09T06:42:49.558Z,16.99
2018-02-09T06:44:42.357Z,16.99
2018-02-09T06:45:42.270Z,17.03
2018-02-09T06:47:35.040Z,17.00
2018-02-09T06:48:34.983Z,17.03
2018-02-09T06:50:27.782Z,17.00
2018-02-09T06:51:27.695Z,16.99
2018-02-09T06:53:20.468Z,16.99
2018-02-09T06:54:20.412Z,16.96
2018-02-09T06:56:13.215Z,16.95
2018-02-09T06:57:13.125Z,17.03
2018-02-09T06:59:05.899Z,17.00
2018-02-09T07:00:05.842Z,16.93
2018-02-09T07:01:58.646Z,16.99
2018-02-09T07:02:58.556Z,16.98
2018-02-09T07:04:51.330Z,16.95
2018-02-09T07:05:51.268Z,16.93
2018-02-09T07:07:44.070Z,16.93
2018-02-09T07:08:43.983Z,16.96
2018-02-09T07:10:36.756Z,17.00
2018-02-09T07:11:36.700Z,16.96
2018-02-09T07:13:29.503Z,16.92
2018-02-09T07:14:29.414Z,17.00
2018-02-09T07:16:22.184Z,16.92
2018-02-09T07:17:22.139Z,16.90
2018-02-09T07:19:14.929Z,16.88
2018-02-09T07:20:14.842Z,16.95
2018-02-09T07:22:07.611Z,16.88
2018-02-09T07:23:07.555Z,16.95
2018-02-09T07:25:00.354Z,16.95
2018-02-09T07:26:00.266Z,16.96
2018-02-09T07:27:53.035Z,16.99
2018-02-09T07:28:52.978Z,16.95
2018-02-09T07:30:45.779Z,16.96
2018-02-09T07:31:45.691Z,16.88
2018-02-09T07:33:38.462Z,16.86
2018-02-09T07:34:38.403Z,16.88
2018-02-09T07:36:31.208Z,16.88
2018-02-09T07:37:31.115Z,16.93
2018-02-09T07:39:23.885Z,16.90
2018-02-09T07:40:23.828Z,16.92
2018-02-09T07:42:16.627Z,16.88
2018-02-09T07:43:16.540Z,16.89
2018-02-09T07:45:09.311Z,16.92
2018-02-09T07:46:09.253Z,16.93
2018-02-09T07:48:02.053Z,16.89
2018-02-09T07:49:01.966Z,16.74
2018-02-09T07:50:54.734Z,16.86
2018-02-09T07:51:54.677Z,16.81
2018-02-09T07:53:47.478Z,16.86
2018-02-09T07:54:47.391Z,16.86
2018-02-09T07:56:40.161Z,16.80
2018-02-09T07:57:40.107Z,16.75
2018-02-09T07:59:32.904Z,16.81
2018-02-09T08:00:32.818Z,16.74
2018-02-09T08:02:25.588Z,16.80
2018-02-09T08:03:25.530Z,16.90
2018-02-09T08:05:18.331Z,16.88
2018-02-09T08:06:18.242Z,16.83
2018-02-09T08:08:11.010Z,16.86
2018-02-09T08:09:10.954Z,16.83
2018-02-09T08:11:03.756Z,16.77
2018-02-09T08:12:03.668Z,16.81
2018-02-09T08:13:56.491Z,16.73
2018-02-09T08:14:56.380Z,16.80
2018-02-09T08:16:49.182Z,16.78
2018-02-09T08:17:49.092Z,16.75
2018-02-09T08:19:41.861Z,16.80
2018-02-09T08:20:41.803Z,16.81
2018-02-09T08:22:34.605Z,16.77
2018-02-09T08:23:34.517Z,16.77
2018-02-09T08:25:27.287Z,16.78
2018-02-09T08:26:27.229Z,16.78
2018-02-09T08:28:20.031Z,16.70
2018-02-09T08:29:19.940Z,16.73
2018-02-09T08:31:12.711Z,16.75
2018-02-09T08:32:12.652Z,16.73
2018-02-09T08:34:05.458Z,16.70
2018-02-09T08:35:05.366Z,16.74
2018-02-09T08:36:58.144Z,16.75
2018-02-09T08:37:58.083Z,16.71
2018-02-09T08:39:50.887Z,16.75
2018-02-09T08:40:50.798Z,16.70
2018-02-09T08:42:43.572Z,16.75
2018-02-09T08:43:43.518Z,16.70
2018-02-09T08:45:36.332Z,16.65
2018-02-09T08:46:36.229Z,16.71
2018-02-09T08:48:28.998Z,16.70
2018-02-09T08:49:28.940Z,16.63
2018-02-09T08:51:21.742Z,16.71
2018-02-09T08:52:21.654Z,16.63
2018-02-09T08:54:14.427Z,16.70
2018-02-09T08:55:14.369Z,16.74
2018-02-09T08:57:07.171Z,16.73
2018-02-09T08:58:07.080Z,16.63
2018-02-09T08:59:59.858Z,16.73
2018-02-09T09:00:59.793Z,16.67
2018-02-09T09:02:52.593Z,16.65
2018-02-09T09:03:52.506Z,16.71
2018-02-09T09:05:45.278Z,16.68
2018-02-09T09:06:45.220Z,16.71
2018-02-09T09:08:38.022Z,16.68
2018-02-09T09:09:37.931Z,16.74
2018-02-09T09:11:30.704Z,16.67
2018-02-09T09:12:30.647Z,16.67
2018-02-09T09:14:23.447Z,16.70
2018-02-09T09:15:23.358Z,16.67
2018-02-09T09:17:16.126Z,16.74
2018-02-09T09:18:16.070Z,16.63
2018-02-09T09:20:08.874Z,16.60
2018-02-09T09:21:08.786Z,16.59
2018-02-09T09:23:01.555Z,16.59
2018-02-09T09:24:01.498Z,16.70
2018-02-09T09:25:54.300Z,16.60
2018-02-09T09:26:54.212Z,16.65
2018-02-09T09:28:46.982Z,16.67
2018-02-09T09:29:46.925Z,16.70
2018-02-09T09:31:39.732Z,16.70
2018-02-09T09:32:39.641Z,16.65
2018-02-09T09:34:32.409Z,16.59
2018-02-09T09:35:32.351Z,16.70
2018-02-09T09:37:25.153Z,16.58
2018-02-09T09:38:25.064Z,16.55
2018-02-09T09:40:18.339Z,16.68
2018-02-09T09:41:18.280Z,16.67
2018-02-09T09:43:11.082Z,16.67
2018-02-09T09:44:10.993Z,16.53
2018-02-09T09:46:03.764Z,16.63
2018-02-09T09:47:03.707Z,16.67
2018-02-09T09:48:56.528Z,16.58
2018-02-09T09:49:56.423Z,16.55
2018-02-09T09:51:49.198Z,16.65
2018-02-09T09:52:49.141Z,16.59
2018-02-09T09:54:41.945Z,16.60
2018-02-09T09:55:41.889Z,16.58
2018-02-09T09:57:34.631Z,16.56
2018-02-09T09:58:34.574Z,16.58
2018-02-09T10:00:27.376Z,16.56
2018-02-09T10:01:27.290Z,16.59
2018-02-09T10:03:20.062Z,16.56
2018-02-09T10:04:20.005Z,16.60
2018-02-09T10:06:12.806Z,16.58
2018-02-09T10:07:12.720Z,16.53
2018-02-09T10:09:05.489Z,16.59
2018-02-09T10:10:05.432Z,16.53
2018-02-09T10:11:58.250Z,16.59
2018-02-09T10:12:58.147Z,16.49
2018-02-09T10:14:50.916Z,16.55
2018-02-09T10:15:50.858Z,16.50
2018-02-09T10:17:43.659Z,16.56
2018-02-09T10:18:43.571Z,16.59
2018-02-09T10:20:36.343Z,16.50
2018-02-09T10:21:36.284Z,16.52
2018-02-09T10:23:29.086Z,16.49
2018-02-09T10:24:29.000Z,16.52
2018-02-09T10:26:21.769Z,16.45
2018-02-09T10:27:21.710Z,16.48
2018-02-09T10:29:14.516Z,16.53
2018-02-09T10:30:14.422Z,16.48
2018-02-09T10:32:07.192Z,16.48
2018-02-09T10:33:07.134Z,16.48
2018-02-09T10:34:59.933Z,16.48
2018-02-09T10:35:59.846Z,16.48
2018-02-09T10:37:52.659Z,16.50
2018-02-09T10:38:52.557Z,16.44
2018-02-09T10:40:45.358Z,16.44
2018-02-09T10:41:45.269Z,16.50
2018-02-09T10:43:38.039Z,16.45
2018-02-09T10:44:37.980Z,16.53
2018-02-09T10:46:30.783Z,16.52
2018-02-09T10:47:30.696Z,16.50
2018-02-09T10:49:23.466Z,16.49
2018-02-09T10:50:23.410Z,16.49
2018-02-09T10:52:16.210Z,16.50
2018-02-09T10:53:16.120Z,16.44
2018-02-09T10:55:08.890Z,16.48
2018-02-09T10:56:08.833Z,16.44
2018-02-09T10:58:01.639Z,16.44
2018-02-09T10:59:01.543Z,16.44
2018-02-09T11:00:54.315Z,16.38
2018-02-09T11:01:54.262Z,16.49
2018-02-09T11:03:47.058Z,16.41
2018-02-09T11:04:46.971Z,16.40
2018-02-09T11:06:39.739Z,16.41
2018-02-09T11:07:39.681Z,16.44
2018-02-09T11:09:32.481Z,16.48
2018-02-09T11:10:32.393Z,16.42
2018-02-09T11:12:25.164Z,16.45
2018-02-09T11:13:25.107Z,16.48
2018-02-09T11:15:17.904Z,16.48
2018-02-09T11:16:17.816Z,16.41
2018-02-09T11:18:10.585Z,16.48
2018-02-09T11:19:10.527Z,16.45
2018-02-09T11:21:03.328Z,16.45
2018-02-09T11:22:03.240Z,16.48
2018-02-09T11:23:56.008Z,16.42
2018-02-09T11:24:55.951Z,16.49
2018-02-09T11:26:48.766Z,16.50
2018-02-09T11:27:48.660Z,16.45
2018-02-09T11:29:41.431Z,16.45
2018-02-09T11:30:41.376Z,16.41
2018-02-09T11:32:34.173Z,16.40
2018-02-09T11:33:34.090Z,16.48
2018-02-09T11:35:26.858Z,16.42
2018-02-09T11:36:26.801Z,16.49
2018-02-09T11:38:19.607Z,16.40
2018-02-09T11:39:19.513Z,16.41
2018-02-09T11:41:12.284Z,16.44
2018-02-09T11:42:12.225Z,16.41
2018-02-09T11:44:05.024Z,16.44
2018-02-09T11:45:04.936Z,16.37
2018-02-09T11:46:57.705Z,16.35
2018-02-09T11:47:57.648Z,16.41
2018-02-09T11:49:50.452Z,16.40
2018-02-09T11:50:50.361Z,16.31
2018-02-09T11:52:43.154Z,16.30
2018-02-09T11:53:43.072Z,16.35
2018-02-09T11:55:35.869Z,16.38
2018-02-09T11:56:35.781Z,16.40
2018-02-09T11:58:28.551Z,16.27
2018-02-09T11:59:28.493Z,16.40
2018-02-09T12:01:21.293Z,16.37
2018-02-09T12:02:21.213Z,16.38
2018-02-09T12:04:13.977Z,16.41
2018-02-09T12:05:13.920Z,16.38
2018-02-09T12:07:06.720Z,16.45
2018-02-09T12:08:06.631Z,16.42
2018-02-09T12:09:59.401Z,16.35
2018-02-09T12:10:59.343Z,16.38
2018-02-09T12:12:52.144Z,16.38
2018-02-09T12:13:52.058Z,16.42
2018-02-09T12:15:44.826Z,16.41
2018-02-09T12:16:44.772Z,16.40
2018-02-09T12:18:37.584Z,16.38
2018-02-09T12:19:37.478Z,16.48
2018-02-09T12:21:30.248Z,16.38
2018-02-09T12:22:30.191Z,16.42
2018-02-09T12:24:22.991Z,16.42
2018-02-09T12:25:22.902Z,16.38
2018-02-09T12:27:15.672Z,16.40
2018-02-09T12:28:15.613Z,16.40
2018-02-09T12:30:08.414Z,16.35
2018-02-09T12:31:08.326Z,16.40
2018-02-09T12:33:01.098Z,16.41
2018-02-09T12:34:01.040Z,16.33
2018-02-09T12:35:53.840Z,16.30
2018-02-09T12:36:53.750Z,16.42
2018-02-09T12:38:46.521Z,16.38
2018-02-09T12:39:46.461Z,16.31
2018-02-09T12:41:39.263Z,16.27
2018-02-09T12:42:39.175Z,16.31
2018-02-09T12:44:31.946Z,16.35
2018-02-09T12:45:31.887Z,16.31
2018-02-09T12:47:24.686Z,16.31
2018-02-09T12:48:24.597Z,16.31
2018-02-09T12:50:17.367Z,16.33
2018-02-09T12:51:17.308Z,16.35
2018-02-09T12:53:10.109Z,16.41
2018-02-09T12:54:10.018Z,16.37
2018-02-09T12:56:02.788Z,16.31
2018-02-09T12:57:02.731Z,16.33
2018-02-09T12:58:55.545Z,16.40
2018-02-09T12:59:55.439Z,16.33
2018-02-09T13:01:48.210Z,16.27
2018-02-09T13:02:48.209Z,16.37
2018-02-09T13:04:40.954Z,16.30
2018-02-09T13:05:40.865Z,16.33
2018-02-09T13:07:33.632Z,16.34
2018-02-09T13:08:33.575Z,16.33
2018-02-09T13:10:26.378Z,16.31
2018-02-09T13:11:26.290Z,16.34
2018-02-09T13:13:19.066Z,16.26
2018-02-09T13:14:19.008Z,16.34
2018-02-09T13:16:11.808Z,16.37
2018-02-09T13:17:11.721Z,16.26
2018-02-09T13:19:04.494Z,16.26
2018-02-09T13:20:04.430Z,16.38
2018-02-09T13:21:57.234Z,16.33
2018-02-09T13:22:57.146Z,16.34
2018-02-09T13:24:49.915Z,16.41
2018-02-09T13:25:49.858Z,16.40
2018-02-09T13:27:42.682Z,16.34
2018-02-09T13:28:42.569Z,16.40
2018-02-09T13:30:35.341Z,16.27
2018-02-09T13:31:35.282Z,16.27
2018-02-09T13:33:28.083Z,16.30
2018-02-09T13:34:27.994Z,16.34
2018-02-09T13:36:20.762Z,16.30
2018-02-09T13:37:20.705Z,16.27
2018-02-09T13:39:13.505Z,16.30
2018-02-09T13:40:13.419Z,16.33
2018-02-09T13:42:06.189Z,16.31
2018-02-09T13:43:06.130Z,16.26
2018-02-09T13:44:58.930Z,16.31
2018-02-09T13:45:58.839Z,16.31
2018-02-09T13:47:51.610Z,16.30
2018-02-09T13:48:51.551Z,16.27
2018-02-09T13:50:44.354Z,16.35
2018-02-09T13:51:44.299Z,16.31
2018-02-09T13:53:37.032Z,16.26
2018-02-09T13:54:36.974Z,16.30
2018-02-09T13:56:29.774Z,16.27
2018-02-09T13:57:29.685Z,16.27
2018-02-09T13:59:22.455Z,16.20
2018-02-09T14:00:22.395Z,16.31
2018-02-09T14:02:15.193Z,16.33
2018-02-09T14:03:15.105Z,16.23
2018-02-09T14:05:07.877Z,16.27
2018-02-09T14:06:07.819Z,16.33
2018-02-09T14:08:00.636Z,16.30
2018-02-09T14:09:00.530Z,16.27
2018-02-09T14:10:53.300Z,16.33
2018-02-09T14:11:53.243Z,16.30
2018-02-09T14:13:46.042Z,16.26
2018-02-09T14:14:45.954Z,16.33
2018-02-09T14:16:38.724Z,16.18
2018-02-09T14:17:38.670Z,16.27
2018-02-09T14:19:31.465Z,16.31
2018-02-09T14:20:31.379Z,16.20
2018-02-09T14:22:24.146Z,16.27
2018-02-09T14:23:24.090Z,16.22
2018-02-09T14:25:16.889Z,16.20
2018-02-09T14:26:16.800Z,16.20
2018-02-09T14:28:09.569Z,16.18
2018-02-09T14:29:09.511Z,16.20
2018-02-09T14:31:02.310Z,16.18
2018-02-09T14:32:02.223Z,16.14
2018-02-09T14:33:54.995Z,16.15
2018-02-09T14:34:54.938Z,16.16
2018-02-09T14:36:47.740Z,16.18
2018-02-09T14:37:47.651Z,16.18
2018-02-09T14:39:40.419Z,16.18
2018-02-09T14:40:40.364Z,16.16
2018-02-09T14:42:33.161Z,16.16
2018-02-09T14:43:33.076Z,16.18
2018-02-09T14:45:25.842Z,16.12
2018-02-09T14:46:25.783Z,16.14
2018-02-09T14:48:18.582Z,16.20
2018-02-09T14:49:18.493Z,16.23
2018-02-09T14:51:11.264Z,16.22
2018-02-09T14:52:11.205Z,16.14
2018-02-09T14:54:04.006Z,16.18
2018-02-09T14:55:03.918Z,16.22
2018-02-09T14:56:56.687Z,16.16
2018-02-09T14:57:56.633Z,16.14
2018-02-09T14:59:49.427Z,16.11
2018-02-09T15:00:49.339Z,16.14
2018-02-09T15:02:42.112Z,16.20
2018-02-09T15:03:42.053Z,16.18
2018-02-09T15:05:34.905Z,16.15
2018-02-09T15:06:34.766Z,16.14
2018-02-09T15:08:27.538Z,16.12
2018-02-09T15:09:27.479Z,16.14
2018-02-09T15:11:20.320Z,16.15
2018-02-09T15:12:20.198Z,16.14
2018-02-09T15:14:12.968Z,16.14
2018-02-09T15:15:12.913Z,16.14
2018-02-09T15:17:05.718Z,16.14
2018-02-09T15:18:05.620Z,16.14
2018-02-09T15:19:58.391Z,16.11
2018-02-09T15:20:58.406Z,16.07
2018-02-09T15:22:51.132Z,16.09
2018-02-09T15:23:51.044Z,16.14
2018-02-09T15:25:43.814Z,16.06
2018-02-09T15:26:43.755Z,16.09
2018-02-09T15:28:36.559Z,16.14
2018-02-09T15:29:36.471Z,16.12
2018-02-09T15:31:29.239Z,16.11
2018-02-09T15:32:29.181Z,16.06
2018-02-09T15:34:22.037Z,16.03
2018-02-09T15:35:21.893Z,16.03
2018-02-09T15:37:14.661Z,16.04
2018-02-09T15:38:14.603Z,16.14
2018-02-09T15:40:07.401Z,16.01
2018-02-09T15:41:07.316Z,16.07
2018-02-09T15:43:00.082Z,16.03
2018-02-09T15:44:00.024Z,16.00
2018-02-09T15:45:52.820Z,16.06
2018-02-09T15:46:52.732Z,16.11
2018-02-09T15:48:45.501Z,16.06
2018-02-09T15:49:45.443Z,16.00
2018-02-09T15:51:38.245Z,16.03
2018-02-09T15:52:38.157Z,16.03
2018-02-09T15:54:30.923Z,16.12
2018-02-09T15:55:30.866Z,16.06
2018-02-09T15:57:23.665Z,16.09
2018-02-09T15:58:23.574Z,16.07
2018-02-09T16:00:16.345Z,16.11
2018-02-09T16:01:16.284Z,16.03
2018-02-09T16:03:09.084Z,15.96
2018-02-09T16:04:08.994Z,16.06
2018-02-09T16:06:01.766Z,16.11
2018-02-09T16:07:01.709Z,15.97
2018-02-09T16:08:54.506Z,15.93
2018-02-09T16:09:54.417Z,16.00
2018-02-09T16:11:47.187Z,16.00
2018-02-09T16:12:47.130Z,15.94
2018-02-09T16:14:39.931Z,15.92
2018-02-09T16:15:39.844Z,15.99
2018-02-09T16:17:32.611Z,16.04
2018-02-09T16:18:32.552Z,15.96
2018-02-09T16:20:25.351Z,15.97
2018-02-09T16:21:25.263Z,16.00
2018-02-09T16:23:18.032Z,15.85
2018-02-09T16:24:17.973Z,15.94
2018-02-09T16:26:10.774Z,15.96
2018-02-09T16:27:10.686Z,15.88
2018-02-09T16:29:03.458Z,15.86
2018-02-09T16:30:03.396Z,15.89
2018-02-09T16:31:56.252Z,15.92
2018-02-09T16:32:56.106Z,15.88
2018-02-09T16:34:48.874Z,15.93
2018-02-09T16:35:48.816Z,15.88
2018-02-09T16:37:41.616Z,15.96
2018-02-09T16:38:41.527Z,15.92
2018-02-09T16:40:34.298Z,16.07
2018-02-09T16:41:34.261Z,16.09
2018-02-09T16:43:27.039Z,16.15
2018-02-09T16:44:27.014Z,16.15
2018-02-09T16:46:19.721Z,16.34
2018-02-09T16:47:19.664Z,16.37
2018-02-09T16:49:12.468Z,16.53
2018-02-09T16:50:12.380Z,16.55
2018-02-09T16:52:05.151Z,16.68
2018-02-09T16:53:05.094Z,16.75
2018-02-09T16:54:57.894Z,16.77
2018-02-09T16:55:57.807Z,16.85
2018-02-09T16:57:50.579Z,16.98
2018-02-09T16:58:50.522Z,17.10
2018-02-09T17:00:43.323Z,17.11
2018-02-09T17:01:43.237Z,17.25
2018-02-09T17:03:36.006Z,17.18
2018-02-09T17:04:35.947Z,17.35
2018-02-09T17:06:28.749Z,17.51
2018-02-09T17:07:28.661Z,17.59
2018-02-09T17:09:21.432Z,17.81
2018-02-09T17:10:21.377Z,17.85
2018-02-09T17:12:14.184Z,18.04
2018-02-09T17:13:14.095Z,18.12
2018-02-09T17:15:06.869Z,18.29
2018-02-09T17:16:06.809Z,18.25
2018-02-09T17:18:00.616Z,18.42
2018-02-09T17:19:00.530Z,18.49
2018-02-09T17:20:53.302Z,18.64
2018-02-09T17:21:53.243Z,18.62
2018-02-09T17:23:46.049Z,18.76
2018-02-09T17:24:45.960Z,18.83
2018-02-09T17:26:38.736Z,19.02
2018-02-09T17:27:38.682Z,19.06
2018-02-09T17:29:31.483Z,19.15
2018-02-09T17:30:31.395Z,19.18
2018-02-09T17:32:24.171Z,19.21
2018-02-09T17:33:24.113Z,19.33
2018-02-09T17:35:16.919Z,19.38
2018-02-09T17:36:16.832Z,19.40
2018-02-09T17:38:09.605Z,19.51
2018-02-09T17:39:09.548Z,19.54
2018-02-09T17:41:02.353Z,19.69
2018-02-09T17:42:02.267Z,19.75
2018-02-09T17:43:55.042Z,19.86
2018-02-09T17:44:54.989Z,19.86
2018-02-09T17:46:47.797Z,20.00
2018-02-09T17:47:47.711Z,20.06
2018-02-09T17:49:40.485Z,20.13
2018-02-09T17:50:40.430Z,20.15
2018-02-09T17:52:33.235Z,20.25
2018-02-09T17:53:33.150Z,20.21
2018-02-09T17:55:25.933Z,20.38
2018-02-09T17:56:25.870Z,20.34
2018-02-09T17:58:18.676Z,20.54
2018-02-09T17:59:18.590Z,20.46
2018-02-09T18:01:11.365Z,20.56
2018-02-09T18:02:11.312Z,20.64
2018-02-09T18:04:04.118Z,20.72
2018-02-09T18:05:04.069Z,20.71
2018-02-09T18:06:56.812Z,20.83
2018-02-09T18:07:56.755Z,20.83
2018-02-09T18:09:49.564Z,20.89
2018-02-09T18:10:49.479Z,20.87
2018-02-09T18:12:42.254Z,20.87
2018-02-09T18:13:42.199Z,21.02
2018-02-09T18:15:35.006Z,20.86
2018-02-09T18:16:34.920Z,20.86
2018-02-09T18:18:27.699Z,21.09
2018-02-09T18:19:27.647Z,21.06
2018-02-09T18:21:20.458Z,21.05
2018-02-09T18:22:20.368Z,21.08
2018-02-09T18:24:13.145Z,21.21
2018-02-09T18:25:13.090Z,21.17
2018-02-09T18:27:05.926Z,21.23
2018-02-09T18:28:05.815Z,21.24
2018-02-09T18:29:58.620Z,21.35
2018-02-09T18:30:58.543Z,21.34
2018-02-09T18:32:51.345Z,21.36